Time;durP1;ratioP1;P1;durP2;ratioP2;P2;SDS_P1;SDS_P2;PMS_P1;PMS_P2;Temp;Humidity;BMP_temperature;BMP_pressure;BME280_temperature;BME280_humidity;BME280_pressure;Samples;Min_cycle;Max_cycle;Signal;HPM_P1;HPM_P2
2023/03/20 00:00:54;;;;;;;7.33;6.13;;;;;;;;;;4999287;28;20177;-81
2023/03/20 00:03:58;;;;;;;6.87;6.17;;;;;;;;;;5022049;28;20181;-81
2023/03/20 00:07:02;;;;;;;7.03;6.30;;;;;;;;;;5033597;28;20180;-81
2023/03/20 00:10:07;;;;;;;6.90;5.93;;;;;;;;;;5010092;28;20217;-81
2023/03/20 00:13:18;;;;;;;15.37;6.47;;;;;;;;;;5011378;28;20185;-81
2023/03/20 00:16:24;;;;;;;6.47;5.70;;;;;;;;;;5024481;28;20185;-80
2023/03/20 00:19:28;;;;;;;6.57;5.90;;;;;;;;;;5013789;28;20688;-80
2023/03/20 00:22:32;;;;;;;8.00;6.10;;;;;;;;;;5013922;28;20200;-80
2023/03/20 00:25:38;;;;;;;9.03;6.50;;;;;;;;;;5003039;28;20545;-80
2023/03/20 00:28:47;;;;;;;10.80;6.80;;;;;;;;;;5002381;28;20676;-80
2023/03/20 00:31:54;;;;;;;6.97;6.27;;;;;;;;;;5013687;28;20189;-81
2023/03/20 00:34:59;;;;;;;10.27;6.37;;;;;;;;;;5013335;28;20185;-81
2023/03/20 00:38:03;;;;;;;6.73;5.97;;;;;;;;;;5024501;28;20188;-80
2023/03/20 00:41:17;;;;;;;7.97;6.60;;;;;;;;;;5002292;28;20173;-81
2023/03/20 00:44:28;;;;;;;7.97;6.63;;;;;;;;;;5024256;28;20541;-80
2023/03/20 00:47:36;;;;;;;7.70;6.80;;;;;;;;;;5002353;28;20633;-81
2023/03/20 00:50:40;;;;;;;8.73;7.80;;;;;;;;;;5012981;28;20212;-81
2023/03/20 00:53:45;;;;;;;12.77;7.63;;;;;;;;;;5001945;28;20184;-81
2023/03/20 00:56:52;;;;;;;9.67;7.50;;;;;;;;;;5013508;28;20185;-81
2023/03/20 01:00:01;;;;;;;8.43;7.50;;;;;;;;;;5023791;28;20704;-81
2023/03/20 01:03:20;;;;;;;8.13;7.33;;;;;;;;;;5035353;28;20637;-80
2023/03/20 01:06:27;;;;;;;7.33;6.63;;;;;;;;;;5024183;28;20519;-80
2023/03/20 01:09:31;;;;;;;7.50;6.53;;;;;;;;;;5024158;28;20218;-81
2023/03/20 01:12:41;;;;;;;7.60;6.87;;;;;;;;;;5024298;28;20181;-81
2023/03/20 01:15:46;;;;;;;11.63;7.13;;;;;;;;;;5001957;28;20189;-81
2023/03/20 01:18:51;;;;;;;7.40;6.63;;;;;;;;;;5012819;28;20701;-81
2023/03/20 01:21:55;;;;;;;10.47;6.90;;;;;;;;;;5024763;28;20518;-80
2023/03/20 01:25:01;;;;;;;7.60;6.80;;;;;;;;;;5012210;28;20185;-81
2023/03/20 01:28:22;;;;;;;11.03;7.03;;;;;;;;;;5012935;28;20185;-81
2023/03/20 01:31:26;;;;;;;7.93;6.70;;;;;;;;;;5012840;28;20630;-81
2023/03/20 01:34:30;;;;;;;9.80;7.23;;;;;;;;;;5023997;28;20201;-81
2023/03/20 01:37:34;;;;;;;8.60;7.57;;;;;;;;;;5001799;28;20204;-81
2023/03/20 01:40:45;;;;;;;8.43;7.03;;;;;;;;;;5012972;28;20212;-81
2023/03/20 01:43:50;;;;;;;10.07;7.43;;;;;;;;;;5012894;28;20177;-81
2023/03/20 01:46:54;;;;;;;12.77;7.57;;;;;;;;;;5036006;28;20189;-81
2023/03/20 01:50:21;;;;;;;7.83;7.00;;;;;;;;;;5001679;28;20220;-81
2023/03/20 01:53:29;;;;;;;7.23;6.17;;;;;;;;;;5035155;28;20565;-81
2023/03/20 01:56:40;;;;;;;8.23;6.77;;;;;;;;;;5013054;28;20205;-81
2023/03/20 02:00:15;;;;;;;8.97;6.73;;;;;;;;;;5011662;28;20228;-81
2023/03/20 02:03:20;;;;;;;11.17;6.40;;;;;;;;;;5023921;28;20188;-81
2023/03/20 02:06:44;;;;;;;7.90;6.57;;;;;;;;;;5023393;28;20185;-81
2023/03/20 02:09:52;;;;;;;9.57;6.63;;;;;;;;;;5023586;28;20220;-81
2023/03/20 02:13:04;;;;;;;7.13;6.43;;;;;;;;;;5001696;28;20201;-81
2023/03/20 02:16:16;;;;;;;7.20;6.50;;;;;;;;;;5012904;28;20551;-80
2023/03/20 02:20:02;;;;;;;10.13;6.83;;;;;;;;;;5022885;28;20588;-80
2023/03/20 02:23:16;;;;;;;7.73;6.93;;;;;;;;;;5023096;28;20185;-80
2023/03/20 02:26:46;;;;;;;11.00;6.90;;;;;;;;;;5011719;28;20551;-80
2023/03/20 02:30:19;;;;;;;10.07;6.47;;;;;;;;;;5011813;28;20216;-81
2023/03/20 02:33:41;;;;;;;9.50;6.70;;;;;;;;;;5000391;28;20176;-81
2023/03/20 02:37:10;;;;;;;9.20;6.90;;;;;;;;;;5000495;28;20191;-81
2023/03/20 02:40:20;;;;;;;7.80;6.13;;;;;;;;;;5011233;28;20208;-81
2023/03/20 02:43:36;;;;;;;7.07;6.37;;;;;;;;;;5011618;28;20661;-81
2023/03/20 02:47:02;;;;;;;6.67;5.97;;;;;;;;;;5011536;28;20527;-81
2023/03/20 02:50:13;;;;;;;8.67;6.73;;;;;;;;;;5021995;28;20225;-81
2023/03/20 02:53:46;;;;;;;8.43;6.50;;;;;;;;;;5022678;28;20181;-80
2023/03/20 02:57:03;;;;;;;8.87;6.40;;;;;;;;;;5011495;28;20193;-80
2023/03/20 03:00:17;;;;;;;6.80;6.10;;;;;;;;;;5000010;28;20224;-80
2023/03/20 03:03:38;;;;;;;8.30;5.90;;;;;;;;;;5000844;28;20181;-81
2023/03/20 03:06:46;;;;;;;6.40;5.57;;;;;;;;;;4999882;28;20186;-81
2023/03/20 03:09:55;;;;;;;6.63;5.40;;;;;;;;;;5011861;28;20216;-81
2023/03/20 03:13:03;;;;;;;10.67;5.23;;;;;;;;;;5012877;28;20185;-81
2023/03/20 03:16:15;;;;;;;5.77;5.07;;;;;;;;;;5011944;28;20189;-81
2023/03/20 03:19:23;;;;;;;8.70;5.60;;;;;;;;;;5023426;28;20216;-81
2023/03/20 03:22:28;;;;;;;8.13;5.33;;;;;;;;;;5001351;28;20189;-81
2023/03/20 03:25:36;;;;;;;6.97;5.33;;;;;;;;;;5000718;28;20181;-81
2023/03/20 03:28:47;;;;;;;5.03;4.53;;;;;;;;;;5011333;28;20221;-81
2023/03/20 03:31:53;;;;;;;7.63;5.80;;;;;;;;;;5000248;28;20614;-81
2023/03/20 03:35:00;;;;;;;6.27;5.00;;;;;;;;;;5011039;28;20180;-81
2023/03/20 03:38:36;;;;;;;7.40;5.07;;;;;;;;;;5010568;28;20637;-81
2023/03/20 03:41:46;;;;;;;5.83;5.00;;;;;;;;;;5006319;28;20574;-81
2023/03/20 03:45:01;;;;;;;7.07;4.97;;;;;;;;;;5010924;28;20189;-81
2023/03/20 03:48:17;;;;;;;5.63;4.07;;;;;;;;;;5011721;28;20557;-81
2023/03/20 03:51:27;;;;;;;5.40;4.07;;;;;;;;;;5003833;28;20173;-81
2023/03/20 03:54:48;;;;;;;7.90;4.30;;;;;;;;;;5014124;28;20185;-81
2023/03/20 03:58:46;;;;;;;5.83;4.70;;;;;;;;;;5027708;28;20590;-81
2023/03/20 04:01:51;;;;;;;5.93;4.47;;;;;;;;;;5037811;28;20209;-81
2023/03/20 04:04:56;;;;;;;5.57;4.37;;;;;;;;;;5025848;28;20189;-81
2023/03/20 04:08:01;;;;;;;5.37;4.30;;;;;;;;;;5002721;28;20189;-81
2023/03/20 04:11:07;;;;;;;5.17;4.67;;;;;;;;;;5025368;28;20537;-81
2023/03/20 04:14:13;;;;;;;5.67;4.83;;;;;;;;;;5013757;28;20196;-81
2023/03/20 04:17:18;;;;;;;5.93;4.03;;;;;;;;;;5002970;28;20203;-81
2023/03/20 04:20:22;;;;;;;5.60;4.70;;;;;;;;;;5014092;28;20216;-81
2023/03/20 04:23:26;;;;;;;9.90;5.20;;;;;;;;;;5025145;28;20180;-81
2023/03/20 04:26:31;;;;;;;5.50;4.90;;;;;;;;;;5003061;28;20181;-81
2023/03/20 04:29:35;;;;;;;5.27;4.50;;;;;;;;;;5013941;28;20220;-81
2023/03/20 04:32:53;;;;;;;8.90;5.17;;;;;;;;;;5024791;28;20195;-81
2023/03/20 04:36:05;;;;;;;6.00;4.60;;;;;;;;;;5013708;28;20181;-81
2023/03/20 04:39:10;;;;;;;5.57;4.13;;;;;;;;;;5024882;28;20229;-81
2023/03/20 04:42:14;;;;;;;7.60;5.03;;;;;;;;;;5002366;28;20184;-81
2023/03/20 04:45:19;;;;;;;6.00;4.33;;;;;;;;;;5013319;28;20205;-81
2023/03/20 04:48:24;;;;;;;5.30;4.70;;;;;;;;;;5012851;28;20620;-81
2023/03/20 04:51:28;;;;;;;7.13;4.60;;;;;;;;;;5013816;28;20185;-81
2023/03/20 04:54:33;;;;;;;6.23;5.07;;;;;;;;;;5021479;23;20594;-75
2023/03/20 04:57:37;;;;;;;6.73;5.67;;;;;;;;;;5043167;28;20220;-75
2023/03/20 05:00:43;;;;;;;6.03;5.10;;;;;;;;;;5041745;28;20212;-75
2023/03/20 05:03:48;;;;;;;6.53;5.20;;;;;;;;;;5043404;28;20192;-75
2023/03/20 05:06:52;;;;;;;7.10;5.90;;;;;;;;;;5043244;28;20544;-75
2023/03/20 05:10:00;;;;;;;5.90;5.27;;;;;;;;;;5043485;28;20181;-75
2023/03/20 05:13:05;;;;;;;7.10;5.37;;;;;;;;;;5043185;28;20184;-75
2023/03/20 05:16:21;;;;;;;6.60;5.00;;;;;;;;;;5043017;28;20196;-75
2023/03/20 05:19:37;;;;;;;8.37;5.40;;;;;;;;;;5033703;28;20189;-75
2023/03/20 05:22:47;;;;;;;6.63;5.60;;;;;;;;;;5055432;28;20173;-75
2023/03/20 05:26:18;;;;;;;7.53;5.60;;;;;;;;;;5035471;28;20188;-75
2023/03/20 05:29:38;;;;;;;6.77;6.10;;;;;;;;;;5042680;28;20185;-75
2023/03/20 05:33:00;;;;;;;6.43;5.63;;;;;;;;;;5042782;28;20185;-75
2023/03/20 05:36:05;;;;;;;7.67;5.90;;;;;;;;;;5055488;28;20184;-75
2023/03/20 05:39:27;;;;;;;7.73;5.80;;;;;;;;;;5033728;28;20184;-75
2023/03/20 05:43:04;;;;;;;6.73;5.73;;;;;;;;;;5047070;28;20185;-75
2023/03/20 05:46:27;;;;;;;9.27;6.50;;;;;;;;;;5054737;28;20192;-76
2023/03/20 05:49:52;;;;;;;6.63;5.80;;;;;;;;;;5042770;28;20185;-75
2023/03/20 05:53:34;;;;;;;8.47;7.10;;;;;;;;;;4973861;28;20187;-75
2023/03/20 05:56:58;;;;;;;7.47;6.60;;;;;;;;;;4980474;28;20218;-76
2023/03/20 06:00:09;;;;;;;9.70;6.40;;;;;;;;;;5011921;28;20181;-75
2023/03/20 06:03:44;;;;;;;6.60;5.87;;;;;;;;;;5034257;28;20193;-75
2023/03/20 06:06:53;;;;;;;8.00;6.50;;;;;;;;;;5033484;28;20185;-75
2023/03/20 06:09:57;;;;;;;7.33;6.37;;;;;;;;;;5033834;28;20188;-75
2023/03/20 06:13:06;;;;;;;8.43;6.57;;;;;;;;;;5033229;28;20197;-75
2023/03/20 06:16:10;;;;;;;8.03;6.30;;;;;;;;;;5022352;28;20185;-75
2023/03/20 06:19:15;;;;;;;7.30;6.10;;;;;;;;;;5022280;28;20189;-75
2023/03/20 06:22:20;;;;;;;8.63;6.63;;;;;;;;;;5022180;28;20208;-75
2023/03/20 06:25:24;;;;;;;8.60;6.60;;;;;;;;;;5033730;28;20180;-75
2023/03/20 06:28:27;;;;;;;8.13;6.63;;;;;;;;;;5033574;28;20217;-75
2023/03/20 06:31:39;;;;;;;6.80;6.10;;;;;;;;;;5021589;28;20197;-75
2023/03/20 06:34:46;;;;;;;6.80;6.10;;;;;;;;;;5033410;28;20185;-75
2023/03/20 06:37:50;;;;;;;7.27;6.53;;;;;;;;;;5032951;28;20224;-76
2023/03/20 06:41:00;;;;;;;10.17;6.57;;;;;;;;;;5032941;28;20216;-75
2023/03/20 06:44:05;;;;;;;8.00;6.33;;;;;;;;;;5033035;28;20181;-75
2023/03/20 06:47:29;;;;;;;6.93;6.23;;;;;;;;;;5033678;28;20232;-75
2023/03/20 06:50:34;;;;;;;8.33;6.43;;;;;;;;;;5033106;28;20184;-75
2023/03/20 06:53:40;;;;;;;7.10;6.40;;;;;;;;;;5021793;28;20189;-75
2023/03/20 06:56:47;;;;;;;6.00;5.40;;;;;;;;;;5053323;28;20196;-75
2023/03/20 06:59:52;;;;;;;8.07;5.80;;;;;;;;;;5041221;28;20193;-75
2023/03/20 07:02:57;;;;;;;6.63;5.77;;;;;;;;;;5041214;28;20287;-75
2023/03/20 07:06:01;;;;;;;6.33;4.87;;;;;;;;;;5041306;28;20641;-75
2023/03/20 07:09:06;;;;;;;8.00;4.83;;;;;;;;;;5029437;28;20180;-75
2023/03/20 07:12:15;;;;;;;5.37;4.53;;;;;;;;;;5040662;28;20196;-75
2023/03/20 07:15:21;;;;;;;6.73;4.70;;;;;;;;;;5029206;28;20184;-75
2023/03/20 07:18:26;;;;;;;5.77;4.70;;;;;;;;;;5041357;28;20287;-75
2023/03/20 07:21:31;;;;;;;5.33;4.80;;;;;;;;;;5052641;28;20231;-75
2023/03/20 07:24:36;;;;;;;5.17;4.60;;;;;;;;;;5040561;28;20510;-75
2023/03/20 07:27:41;;;;;;;6.00;4.90;;;;;;;;;;5040397;28;20323;-75
2023/03/20 07:30:45;;;;;;;6.93;5.40;;;;;;;;;;5040634;28;20189;-75
2023/03/20 07:33:53;;;;;;;6.07;5.10;;;;;;;;;;5040873;28;20176;-75
2023/03/20 07:36:57;;;;;;;6.00;4.73;;;;;;;;;;5040768;28;20227;-75
2023/03/20 07:40:02;;;;;;;6.70;5.90;;;;;;;;;;5053331;28;20176;-75
2023/03/20 07:43:11;;;;;;;5.43;4.70;;;;;;;;;;5029515;28;20176;-75
2023/03/20 07:46:34;;;;;;;6.30;4.20;;;;;;;;;;5052673;28;20188;-75
2023/03/20 07:49:40;;;;;;;6.93;4.07;;;;;;;;;;5029405;28;20545;-75
2023/03/20 07:52:47;;;;;;;4.93;4.20;;;;;;;;;;5028982;28;20200;-75
2023/03/20 07:55:51;;;;;;;5.73;4.23;;;;;;;;;;5052830;28;20549;-75
2023/03/20 07:58:55;;;;;;;4.53;3.70;;;;;;;;;;5052500;28;20224;-75
2023/03/20 08:01:59;;;;;;;5.07;4.30;;;;;;;;;;5052796;28;20207;-75
2023/03/20 08:05:04;;;;;;;4.30;3.90;;;;;;;;;;5029114;28;20184;-75
2023/03/20 08:08:08;;;;;;;4.47;4.07;;;;;;;;;;5052667;28;20216;-75
2023/03/20 08:11:13;;;;;;;6.97;3.60;;;;;;;;;;5053081;28;20176;-75
2023/03/20 08:14:17;;;;;;;3.90;3.60;;;;;;;;;;5052147;28;20641;-75
2023/03/20 08:17:21;;;;;;;4.57;3.70;;;;;;;;;;5028933;28;20220;-75
2023/03/20 08:20:26;;;;;;;5.47;4.43;;;;;;;;;;5052915;28;20184;-75
2023/03/20 08:23:30;;;;;;;3.60;3.30;;;;;;;;;;5028683;28;20195;-75
2023/03/20 08:26:34;;;;;;;5.73;3.67;;;;;;;;;;5052893;28;20185;-75
2023/03/20 08:29:38;;;;;;;4.10;3.70;;;;;;;;;;5040063;28;20188;-75
2023/03/20 08:32:42;;;;;;;3.90;3.40;;;;;;;;;;5052192;28;20556;-75
2023/03/20 08:35:57;;;;;;;3.47;3.17;;;;;;;;;;5056676;28;20184;-76
2023/03/20 08:39:01;;;;;;;3.63;3.10;;;;;;;;;;5056036;28;20228;-75
2023/03/20 08:42:05;;;;;;;5.03;3.20;;;;;;;;;;5056251;28;20215;-75
2023/03/20 08:45:10;;;;;;;3.40;3.10;;;;;;;;;;5055786;28;20188;-75
2023/03/20 08:48:15;;;;;;;4.13;3.10;;;;;;;;;;5054783;28;20703;-75
2023/03/20 08:51:19;;;;;;;3.80;3.00;;;;;;;;;;5055888;28;20184;-75
2023/03/20 08:54:24;;;;;;;3.43;3.13;;;;;;;;;;5055596;28;20208;-76
2023/03/20 08:57:27;;;;;;;3.60;3.00;;;;;;;;;;5055555;28;20565;-75
2023/03/20 09:00:31;;;;;;;3.70;3.40;;;;;;;;;;5055917;28;20549;-75
2023/03/20 09:03:36;;;;;;;3.43;3.10;;;;;;;;;;5055642;28;20672;-75
2023/03/20 09:06:40;;;;;;;3.17;2.87;;;;;;;;;;5043473;28;20177;-75
2023/03/20 09:09:44;;;;;;;3.63;3.00;;;;;;;;;;5031745;28;20188;-75
2023/03/20 09:12:48;;;;;;;3.10;2.60;;;;;;;;;;5043283;28;20180;-75
2023/03/20 09:15:53;;;;;;;2.90;2.60;;;;;;;;;;5055140;28;20199;-75
2023/03/20 09:18:58;;;;;;;4.60;3.17;;;;;;;;;;5042642;28;20708;-75
2023/03/20 09:22:02;;;;;;;3.00;2.80;;;;;;;;;;5055249;28;20208;-75
2023/03/20 09:25:07;;;;;;;3.80;3.00;;;;;;;;;;5055264;28;20184;-75
2023/03/20 09:28:11;;;;;;;3.50;3.10;;;;;;;;;;5055040;28;20216;-75
2023/03/20 09:31:15;;;;;;;2.83;2.57;;;;;;;;;;5031270;28;20184;-76
2023/03/20 09:34:19;;;;;;;3.20;2.70;;;;;;;;;;5042771;28;20526;-75
2023/03/20 09:37:24;;;;;;;3.43;3.00;;;;;;;;;;5031318;28;20211;-76
2023/03/20 09:40:35;;;;;;;3.80;3.17;;;;;;;;;;5054639;28;20534;-76
2023/03/20 09:44:10;;;;;;;3.90;2.67;;;;;;;;;;5042433;28;20216;-76
2023/03/20 09:47:33;;;;;;;2.80;2.60;;;;;;;;;;5053877;28;20228;-75
2023/03/20 09:51:09;;;;;;;2.53;2.00;;;;;;;;;;5042750;28;20531;-75
2023/03/20 09:54:28;;;;;;;3.17;2.07;;;;;;;;;;5042073;28;20549;-75
2023/03/20 09:57:42;;;;;;;2.00;1.80;;;;;;;;;;5042276;28;20701;-75
2023/03/20 10:00:46;;;;;;;2.50;2.30;;;;;;;;;;5054265;28;20529;-75
2023/03/20 10:04:00;;;;;;;3.27;2.40;;;;;;;;;;5054412;28;20192;-75
2023/03/20 10:07:05;;;;;;;2.50;1.73;;;;;;;;;;5054521;28;20692;-76
2023/03/20 10:10:13;;;;;;;1.63;1.53;;;;;;;;;;5054589;28;20191;-76
2023/03/20 10:13:41;;;;;;;2.20;2.00;;;;;;;;;;5054329;28;20543;-76
2023/03/20 10:17:17;;;;;;;2.30;2.10;;;;;;;;;;5042105;28;20187;-76
2023/03/20 10:20:35;;;;;;;2.50;2.30;;;;;;;;;;5042137;28;20180;-75
2023/03/20 10:23:48;;;;;;;2.20;1.97;;;;;;;;;;5041444;28;20215;-75
2023/03/20 10:26:57;;;;;;;2.37;2.17;;;;;;;;;;5042007;28;20629;-76
2023/03/20 10:30:31;;;;;;;2.00;1.90;;;;;;;;;;5053660;28;20208;-76
2023/03/20 10:33:58;;;;;;;3.47;2.10;;;;;;;;;;5053645;28;20188;-75
2023/03/20 10:37:32;;;;;;;1.60;1.50;;;;;;;;;;5053835;28;20715;-75
2023/03/20 10:40:40;;;;;;;2.43;1.40;;;;;;;;;;5059806;28;20521;-75
2023/03/20 10:43:47;;;;;;;1.67;1.57;;;;;;;;;;5053362;28;20228;-76
2023/03/20 10:46:55;;;;;;;2.83;1.40;;;;;;;;;;5053578;28;20179;-76
2023/03/20 10:50:06;;;;;;;1.40;1.30;;;;;;;;;;5053990;28;20180;-76
2023/03/20 10:53:23;;;;;;;1.80;1.60;;;;;;;;;;5029743;28;20636;-75
2023/03/20 10:56:45;;;;;;;1.20;1.10;;;;;;;;;;5038409;23;20242;-70
2023/03/20 10:59:51;;;;;;;1.40;1.30;;;;;;;;;;4994267;28;20182;-71
2023/03/20 11:02:54;;;;;;;1.73;1.30;;;;;;;;;;4982047;28;20234;-72
2023/03/20 11:06:24;;;;;;;1.20;1.10;;;;;;;;;;4994682;28;20190;-69
2023/03/20 11:09:31;;;;;;;1.30;1.20;;;;;;;;;;4993845;28;20194;-70
2023/03/20 11:12:44;;;;;;;1.20;1.00;;;;;;;;;;4994085;28;20182;-70
2023/03/20 11:15:51;;;;;;;1.10;1.00;;;;;;;;;;4994133;28;20190;-71
2023/03/20 11:19:03;;;;;;;1.77;1.00;;;;;;;;;;4993677;28;20218;-70
2023/03/20 11:22:20;;;;;;;1.43;1.30;;;;;;;;;;4993542;28;20571;-72
2023/03/20 11:25:31;;;;;;;1.83;1.10;;;;;;;;;;4993977;28;20182;-72
2023/03/20 11:28:38;;;;;;;1.83;1.20;;;;;;;;;;4993666;28;20225;-72
2023/03/20 11:31:42;;;;;;;1.50;1.30;;;;;;;;;;4994135;28;20190;-72
2023/03/20 11:34:46;;;;;;;1.70;1.30;;;;;;;;;;4994075;28;20186;-72
2023/03/20 11:37:53;;;;;;;1.47;1.33;;;;;;;;;;4993528;28;20226;-72
2023/03/20 11:40:57;;;;;;;1.50;1.30;;;;;;;;;;4993951;28;20182;-72
2023/03/20 11:44:01;;;;;;;1.93;1.30;;;;;;;;;;4992809;28;20217;-72
2023/03/20 11:47:21;;;;;;;1.60;1.30;;;;;;;;;;5004127;28;20698;-72
2023/03/20 11:50:36;;;;;;;1.40;1.30;;;;;;;;;;4993406;28;20202;-72
2023/03/20 11:53:55;;;;;;;1.40;1.30;;;;;;;;;;4993515;28;20675;-72
2023/03/20 11:57:00;;;;;;;1.10;1.00;;;;;;;;;;4993261;28;20225;-72
2023/03/20 12:00:10;;;;;;;2.30;1.40;;;;;;;;;;5004028;28;20198;-72
2023/03/20 12:03:35;;;;;;;1.17;0.93;;;;;;;;;;4993183;28;20226;-72
2023/03/20 12:06:57;;;;;;;2.53;0.93;;;;;;;;;;4993715;28;20186;-72
2023/03/20 12:10:05;;;;;;;1.80;1.17;;;;;;;;;;4972974;28;20182;-72
2023/03/20 12:13:17;;;;;;;1.03;0.90;;;;;;;;;;4997849;28;20182;-72
2023/03/20 12:16:23;;;;;;;0.73;0.70;;;;;;;;;;4985024;28;20186;-72
2023/03/20 12:19:29;;;;;;;0.70;0.70;;;;;;;;;;4997173;28;20187;-72
2023/03/20 12:22:46;;;;;;;7.13;5.07;;;;;;;;;;4997036;28;20214;-72
2023/03/20 12:26:06;;;;;;;3.57;2.40;;;;;;;;;;4997008;28;20186;-72
2023/03/20 12:29:30;;;;;;;5.20;2.40;;;;;;;;;;4996864;28;20187;-72
2023/03/20 12:32:37;;;;;;;4.47;2.70;;;;;;;;;;4984712;28;20182;-72
2023/03/20 12:35:47;;;;;;;3.83;2.77;;;;;;;;;;4985090;28;20206;-72
2023/03/20 12:38:51;;;;;;;3.30;1.67;;;;;;;;;;4996541;28;20221;-72
2023/03/20 12:42:33;;;;;;;1.40;1.10;;;;;;;;;;4984935;28;20186;-72
2023/03/20 12:45:40;;;;;;;2.40;1.30;;;;;;;;;;4951852;28;20218;-72
2023/03/20 12:49:07;;;;;;;1.50;1.00;;;;;;;;;;4984623;28;20724;-72
2023/03/20 12:52:25;;;;;;;1.63;0.90;;;;;;;;;;4984242;28;20190;-72
2023/03/20 12:56:01;;;;;;;1.93;1.10;;;;;;;;;;5006517;28;20214;-72
2023/03/20 12:59:18;;;;;;;0.80;0.70;;;;;;;;;;4984581;28;20190;-72
2023/03/20 13:02:32;;;;;;;0.80;0.70;;;;;;;;;;4996269;28;20198;-72
2023/03/20 13:05:45;;;;;;;1.80;0.80;;;;;;;;;;4996259;28;20198;-72
2023/03/20 13:09:22;;;;;;;1.00;0.70;;;;;;;;;;4995967;28;20221;-72
2023/03/20 13:12:53;;;;;;;1.00;0.80;;;;;;;;;;4979159;28;20210;-72
2023/03/20 13:16:45;;;;;;;2.20;0.80;;;;;;;;;;4996652;28;20182;-72
2023/03/20 13:20:18;;;;;;;1.27;0.70;;;;;;;;;;4938439;28;20527;-73
2023/03/20 13:23:55;;;;;;;2.57;0.90;;;;;;;;;;4984202;28;20556;-73
2023/03/20 13:27:14;;;;;;;6.13;1.10;;;;;;;;;;4995790;28;20218;-74
2023/03/20 13:31:04;;;;;;;1.07;0.70;;;;;;;;;;4995831;28;20190;-73
2023/03/20 13:34:34;;;;;;;1.10;0.73;;;;;;;;;;4986579;28;20210;-73
2023/03/20 13:37:48;;;;;;;1.07;0.80;;;;;;;;;;4995330;28;20222;-72
2023/03/20 13:41:04;;;;;;;1.33;0.80;;;;;;;;;;4995838;28;20191;-73
2023/03/20 13:44:12;;;;;;;0.87;0.73;;;;;;;;;;4994567;28;20210;-73
2023/03/20 13:47:21;;;;;;;1.00;0.87;;;;;;;;;;4983633;28;20233;-73
2023/03/20 13:50:34;;;;;;;0.90;0.70;;;;;;;;;;4995602;28;20186;-73
2023/03/20 13:54:16;;;;;;;0.70;0.70;;;;;;;;;;4995386;28;20639;-73
2023/03/20 13:57:48;;;;;;;1.33;0.70;;;;;;;;;;4983207;28;20222;-73
2023/03/20 14:01:14;;;;;;;2.13;0.67;;;;;;;;;;4995128;28;20187;-73
2023/03/20 14:04:21;;;;;;;0.60;0.60;;;;;;;;;;4995007;28;20215;-73
2023/03/20 14:07:29;;;;;;;0.97;0.77;;;;;;;;;;4994761;28;20213;-73
2023/03/20 14:10:34;;;;;;;1.33;0.70;;;;;;;;;;4994165;28;20190;-73
2023/03/20 14:13:43;;;;;;;1.77;0.70;;;;;;;;;;4994792;28;20201;-73
2023/03/20 14:16:48;;;;;;;1.07;0.53;;;;;;;;;;4994800;28;20277;-73
2023/03/20 14:19:53;;;;;;;1.10;0.60;;;;;;;;;;4994207;28;20635;-73
2023/03/20 14:22:57;;;;;;;0.60;0.50;;;;;;;;;;4982485;28;20536;-73
2023/03/20 14:26:29;;;;;;;0.73;0.60;;;;;;;;;;4994692;28;20190;-73
2023/03/20 14:29:37;;;;;;;0.63;0.60;;;;;;;;;;4971644;28;20187;-73
2023/03/20 14:33:16;;;;;;;1.07;0.80;;;;;;;;;;4982584;28;20174;-72
2023/03/20 14:36:27;;;;;;;0.47;0.47;;;;;;;;;;4989130;28;20666;-72
2023/03/20 14:39:52;;;;;;;0.60;0.50;;;;;;;;;;5004902;28;20187;-71
2023/03/20 14:43:03;;;;;;;0.83;0.60;;;;;;;;;;4994566;28;20647;-73
2023/03/20 14:46:41;;;;;;;1.10;0.90;;;;;;;;;;5005035;28;20194;-74
2023/03/20 14:50:10;;;;;;;1.00;0.90;;;;;;;;;;4982656;28;20182;-73
2023/03/20 14:53:20;;;;;;;1.90;1.00;;;;;;;;;;4982134;28;20186;-73
2023/03/20 14:56:31;;;;;;;1.33;0.77;;;;;;;;;;4994060;28;20205;-73
2023/03/20 14:59:36;;;;;;;1.00;0.70;;;;;;;;;;4981836;28;20199;-73
2023/03/20 15:02:42;;;;;;;6.10;1.00;;;;;;;;;;4993784;28;20212;-72
2023/03/20 15:05:54;;;;;;;1.33;0.80;;;;;;;;;;4994243;28;20186;-73
2023/03/20 15:09:05;;;;;;;1.70;0.80;;;;;;;;;;4993958;28;20222;-72
2023/03/20 15:12:16;;;;;;;0.87;0.67;;;;;;;;;;4993838;28;20642;-73
2023/03/20 15:15:30;;;;;;;0.90;0.70;;;;;;;;;;4982238;28;20643;-72
2023/03/20 15:18:39;;;;;;;1.03;0.60;;;;;;;;;;4993610;28;20222;-72
2023/03/20 15:21:45;;;;;;;1.03;0.60;;;;;;;;;;4982101;28;20643;-73
2023/03/20 15:24:54;;;;;;;1.07;0.67;;;;;;;;;;4993214;28;20214;-73
2023/03/20 15:27:59;;;;;;;0.70;0.60;;;;;;;;;;4993357;28;20213;-73
2023/03/20 15:31:05;;;;;;;1.10;0.80;;;;;;;;;;4993560;28;20186;-71
2023/03/20 15:34:22;;;;;;;0.60;0.60;;;;;;;;;;4981937;28;20178;-72
2023/03/20 15:37:26;;;;;;;1.37;0.70;;;;;;;;;;4993716;28;20233;-73
2023/03/20 15:40:33;;;;;;;2.57;0.70;;;;;;;;;;4994095;28;20186;-72
2023/03/20 15:43:37;;;;;;;0.63;0.60;;;;;;;;;;4982231;28;20537;-72
2023/03/20 15:47:04;;;;;;;0.70;0.60;;;;;;;;;;4997796;28;20190;-72
2023/03/20 15:50:12;;;;;;;1.10;0.80;;;;;;;;;;4997285;28;20190;-72
2023/03/20 15:53:19;;;;;;;1.43;1.00;;;;;;;;;;4997343;28;20190;-72
2023/03/20 15:56:26;;;;;;;1.60;0.63;;;;;;;;;;4985239;28;20210;-72
2023/03/20 15:59:32;;;;;;;1.70;1.00;;;;;;;;;;4997525;28;20190;-72
2023/03/20 16:02:36;;;;;;;2.03;0.97;;;;;;;;;;4997579;28;20186;-72
2023/03/20 16:05:43;;;;;;;1.03;0.93;;;;;;;;;;4997224;28;20182;-73
2023/03/20 16:08:59;;;;;;;1.10;0.90;;;;;;;;;;4997400;28;20221;-72
2023/03/20 16:12:14;;;;;;;1.27;1.00;;;;;;;;;;4985468;28;20624;-72
2023/03/20 16:15:20;;;;;;;1.60;1.07;;;;;;;;;;4997095;28;20183;-72
2023/03/20 16:18:27;;;;;;;0.97;0.93;;;;;;;;;;4997512;28;20217;-72
2023/03/20 16:21:39;;;;;;;1.20;0.77;;;;;;;;;;4996987;28;20639;-72
2023/03/20 16:24:47;;;;;;;0.87;0.80;;;;;;;;;;4996952;28;20528;-72
2023/03/20 16:27:52;;;;;;;1.07;0.90;;;;;;;;;;4984685;28;20222;-72
2023/03/20 16:31:07;;;;;;;2.57;0.80;;;;;;;;;;4996887;28;20190;-72
2023/03/20 16:34:19;;;;;;;4.67;1.00;;;;;;;;;;5007517;28;20178;-71
2023/03/20 16:37:48;;;;;;;1.90;0.70;;;;;;;;;;4984689;28;20321;-71
2023/03/20 16:40:57;;;;;;;0.73;0.73;;;;;;;;;;5012975;28;20189;-72
2023/03/20 16:44:14;;;;;;;1.50;0.80;;;;;;;;;;4995583;28;20218;-72
2023/03/20 16:47:31;;;;;;;1.67;0.73;;;;;;;;;;4996519;28;20225;-72
2023/03/20 16:50:37;;;;;;;1.60;0.90;;;;;;;;;;4984423;28;20190;-72
2023/03/20 16:53:45;;;;;;;5.37;0.80;;;;;;;;;;4984797;28;20187;-73
2023/03/20 16:56:54;;;;;;;2.10;0.90;;;;;;;;;;5014314;23;20230;-75
2023/03/20 17:00:05;;;;;;;3.40;0.70;;;;;;;;;;5004010;28;20197;-75
2023/03/20 17:03:15;;;;;;;3.53;0.80;;;;;;;;;;5003672;28;20185;-75
2023/03/20 17:06:20;;;;;;;2.30;0.60;;;;;;;;;;5003929;28;20182;-75
2023/03/20 17:09:28;;;;;;;0.63;0.63;;;;;;;;;;5003465;28;20177;-75
2023/03/20 17:12:31;;;;;;;2.00;0.80;;;;;;;;;;5016019;28;20653;-75
2023/03/20 17:15:36;;;;;;;1.57;1.20;;;;;;;;;;5015852;28;20185;-74
2023/03/20 17:18:40;;;;;;;2.00;1.30;;;;;;;;;;5015602;28;20221;-75
2023/03/20 17:21:45;;;;;;;3.23;1.20;;;;;;;;;;5015653;28;20534;-75
2023/03/20 17:24:50;;;;;;;3.23;1.13;;;;;;;;;;5016016;28;20551;-75
2023/03/20 17:27:55;;;;;;;6.20;1.40;;;;;;;;;;5015260;28;20221;-75
2023/03/20 17:31:03;;;;;;;1.50;1.10;;;;;;;;;;5015464;28;20182;-75
2023/03/20 17:34:12;;;;;;;6.03;1.30;;;;;;;;;;5003138;28;20178;-75
2023/03/20 17:37:26;;;;;;;1.63;0.90;;;;;;;;;;5003357;28;20221;-75
2023/03/20 17:40:30;;;;;;;1.50;1.03;;;;;;;;;;5003297;28;20190;-75
2023/03/20 17:43:34;;;;;;;2.00;0.93;;;;;;;;;;5015351;28;20186;-75
2023/03/20 17:46:38;;;;;;;4.27;2.50;;;;;;;;;;5003025;28;20193;-75
2023/03/20 17:49:44;;;;;;;4.77;2.20;;;;;;;;;;5015111;28;20189;-75
2023/03/20 17:52:48;;;;;;;2.73;1.57;;;;;;;;;;4991728;28;20185;-75
2023/03/20 17:55:52;;;;;;;2.50;1.33;;;;;;;;;;5002735;28;20205;-75
2023/03/20 17:58:56;;;;;;;1.73;1.40;;;;;;;;;;4991592;28;20221;-75
2023/03/20 18:02:00;;;;;;;4.03;1.13;;;;;;;;;;5014929;28;20185;-74
2023/03/20 18:05:06;;;;;;;5.17;1.23;;;;;;;;;;5014792;28;20221;-75
2023/03/20 18:08:20;;;;;;;3.53;1.13;;;;;;;;;;5002302;28;20217;-75
2023/03/20 18:11:25;;;;;;;2.17;1.10;;;;;;;;;;5014914;28;20190;-75
2023/03/20 18:14:28;;;;;;;0.87;0.70;;;;;;;;;;5002367;28;20173;-75
2023/03/20 18:17:32;;;;;;;3.93;1.07;;;;;;;;;;5014539;28;20225;-75
2023/03/20 18:20:39;;;;;;;4.10;1.00;;;;;;;;;;5002471;28;20185;-75
2023/03/20 18:23:44;;;;;;;2.93;0.90;;;;;;;;;;5002240;28;20190;-75
2023/03/20 18:26:50;;;;;;;1.83;0.90;;;;;;;;;;5014404;28;20174;-75
2023/03/20 18:29:53;;;;;;;1.20;1.00;;;;;;;;;;4990913;28;20189;-75
2023/03/20 18:32:57;;;;;;;1.00;0.90;;;;;;;;;;5014299;28;20190;-75
2023/03/20 18:36:01;;;;;;;1.40;1.10;;;;;;;;;;5002415;28;20182;-75
2023/03/20 18:39:06;;;;;;;2.83;1.30;;;;;;;;;;5014461;28;20181;-75
2023/03/20 18:42:10;;;;;;;1.37;1.00;;;;;;;;;;5014707;28;20182;-75
2023/03/20 18:45:15;;;;;;;1.33;1.10;;;;;;;;;;5001682;28;20551;-75
2023/03/20 18:48:19;;;;;;;1.00;0.90;;;;;;;;;;5014113;28;20562;-75
2023/03/20 18:51:24;;;;;;;5.07;0.90;;;;;;;;;;5014266;28;20194;-75
2023/03/20 18:54:28;;;;;;;1.20;0.90;;;;;;;;;;5001889;28;20178;-75
2023/03/20 18:57:35;;;;;;;1.23;0.83;;;;;;;;;;5001512;28;20237;-75
2023/03/20 19:00:39;;;;;;;1.03;0.90;;;;;;;;;;5013034;28;20194;-75
2023/03/20 19:03:45;;;;;;;1.43;1.00;;;;;;;;;;4990421;28;20185;-75
2023/03/20 19:06:49;;;;;;;2.17;1.10;;;;;;;;;;5001592;28;20177;-75